createdAt,value
2018-08-14T00:00:33.047Z,45.53
2018-08-14T00:03:01.010Z,45.17
2018-08-14T00:05:28.356Z,47.03
2018-08-14T00:07:55.344Z,47.40
2018-08-14T00:10:22.288Z,50.47
2018-08-14T00:12:49.225Z,47.93
2018-08-14T00:15:16.225Z,48.47
2018-08-14T00:17:44.832Z,49.63
2018-08-14T00:20:13.158Z,49.73
2018-08-14T00:22:40.093Z,50.63
2018-08-14T00:25:08.129Z,50.27
2018-08-14T00:27:35.585Z,53.03
2018-08-14T00:30:03.012Z,51.60
2018-08-14T00:32:30.092Z,50.63
2018-08-14T00:34:57.547Z,48.97
2018-08-14T00:37:24.917Z,53.20
2018-08-14T00:39:52.671Z,49.87
2018-08-14T00:42:20.544Z,51.80
2018-08-14T00:44:47.496Z,49.63
2018-08-14T00:47:14.392Z,49.90
2018-08-14T00:49:41.306Z,49.33
2018-08-14T00:52:08.347Z,53.43
2018-08-14T00:54:35.257Z,51.70
2018-08-14T00:57:02.324Z,54.90
2018-08-14T00:59:29.464Z,49.97
2018-08-14T01:01:56.344Z,50.80
2018-08-14T01:04:23.305Z,54.03
2018-08-14T01:06:50.219Z,52.27
2018-08-14T01:09:17.111Z,53.13
2018-08-14T01:11:44.016Z,55.47
2018-08-14T01:14:10.922Z,52.00
2018-08-14T01:16:37.820Z,51.83
2018-08-14T01:19:04.816Z,53.10
2018-08-14T01:21:31.716Z,53.97
2018-08-14T01:23:58.615Z,51.70
2018-08-14T01:26:25.504Z,52.37
2018-08-14T01:28:52.395Z,51.10
2018-08-14T01:31:19.296Z,53.77
2018-08-14T01:33:46.184Z,49.07
2018-08-14T01:36:13.067Z,50.20
2018-08-14T01:38:39.951Z,51.60
2018-08-14T01:41:06.860Z,49.73
2018-08-14T01:43:33.745Z,49.83
2018-08-14T01:46:00.632Z,49.87
2018-08-14T01:48:27.524Z,49.07
2018-08-14T01:50:54.416Z,51.73
2018-08-14T01:53:21.299Z,52.43
2018-08-14T01:55:48.205Z,47.60
2018-08-14T01:58:15.095Z,48.70
2018-08-14T02:00:41.988Z,49.67
2018-08-14T02:03:08.875Z,54.07
2018-08-14T02:05:35.769Z,51.33
2018-08-14T02:08:02.695Z,49.77
2018-08-14T02:10:29.560Z,50.37
2018-08-14T02:12:56.447Z,62.27
2018-08-14T02:15:23.323Z,56.57
2018-08-14T02:17:50.228Z,50.40
2018-08-14T02:20:20.258Z,49.47
2018-08-14T02:22:47.745Z,51.47
2018-08-14T02:25:14.699Z,51.80
2018-08-14T02:27:42.415Z,50.90
2018-08-14T02:30:09.309Z,46.53
2018-08-14T02:32:36.717Z,50.50
2018-08-14T02:35:04.862Z,44.10
2018-08-14T02:37:31.751Z,43.57
2018-08-14T02:39:58.675Z,45.50
2018-08-14T02:42:25.572Z,42.97
2018-08-14T02:44:52.482Z,51.47
2018-08-14T02:47:19.387Z,49.67
2018-08-14T02:49:46.299Z,48.73
2018-08-14T02:52:13.214Z,56.07
2018-08-14T02:54:40.129Z,44.83
2018-08-14T02:57:07.062Z,48.73
2018-08-14T02:59:34.010Z,41.67
2018-08-14T03:02:00.904Z,41.53
2018-08-14T03:04:27.853Z,44.33
2018-08-14T03:06:54.764Z,52.90
2018-08-14T03:09:21.678Z,40.90
2018-08-14T03:11:48.589Z,53.50
2018-08-14T03:14:15.518Z,47.13
2018-08-14T03:16:42.458Z,41.60
2018-08-14T03:19:09.392Z,35.37
2018-08-14T03:21:36.313Z,42.33
2018-08-14T03:24:03.298Z,37.20
2018-08-14T03:26:30.293Z,39.93
2018-08-14T03:28:57.283Z,34.37
2018-08-14T03:31:24.214Z,38.53
2018-08-14T03:33:51.449Z,37.93
2018-08-14T03:36:18.380Z,40.23
2018-08-14T03:38:45.309Z,37.37
2018-08-14T03:41:12.228Z,41.70
2018-08-14T03:43:39.161Z,38.43
2018-08-14T03:46:06.092Z,35.47
2018-08-14T03:48:33.030Z,35.40
2018-08-14T03:50:59.976Z,47.17
2018-08-14T03:53:26.891Z,40.93
2018-08-14T03:55:53.831Z,42.70
2018-08-14T03:58:20.736Z,52.00
2018-08-14T04:00:47.652Z,36.40
2018-08-14T04:03:14.567Z,50.03
2018-08-14T04:05:41.484Z,46.57
2018-08-14T04:08:08.400Z,44.17
2018-08-14T04:10:35.307Z,52.17
2018-08-14T04:13:02.211Z,49.13
2018-08-14T04:15:29.108Z,37.33
2018-08-14T04:18:02.089Z,37.23
2018-08-14T04:20:29.000Z,40.57
2018-08-14T04:22:55.905Z,44.60
2018-08-14T04:25:22.820Z,49.47
2018-08-14T04:27:49.708Z,44.73
2018-08-14T04:30:16.632Z,38.30
2018-08-14T04:32:44.379Z,37.23
2018-08-14T04:35:11.461Z,29.50
2018-08-14T04:37:38.369Z,29.57
2018-08-14T04:40:06.935Z,30.43
2018-08-14T04:42:33.843Z,27.70
2018-08-14T04:45:00.752Z,29.53
2018-08-14T04:47:27.647Z,18.83
2018-08-14T04:49:54.559Z,19.33
2018-08-14T04:52:21.472Z,11.80
2018-08-14T04:54:48.389Z,7.97
2018-08-14T04:57:15.281Z,9.60
2018-08-14T04:59:42.200Z,12.87
2018-08-14T05:02:09.096Z,13.83
2018-08-14T05:04:36.020Z,15.43
2018-08-14T05:07:03.859Z,16.50
2018-08-14T05:09:30.793Z,16.93
2018-08-14T05:11:57.689Z,17.63
2018-08-14T05:14:24.587Z,22.03
2018-08-14T05:16:51.509Z,19.20
2018-08-14T05:19:18.409Z,19.13
2018-08-14T05:21:45.316Z,19.77
2018-08-14T05:24:12.212Z,23.87
2018-08-14T05:26:39.109Z,21.03
2018-08-14T05:29:05.995Z,22.17
2018-08-14T05:31:32.887Z,23.60
2018-08-14T05:33:59.768Z,26.67
2018-08-14T05:36:26.664Z,29.70
2018-08-14T05:38:53.556Z,26.73
2018-08-14T05:41:20.448Z,29.67
2018-08-14T05:43:47.344Z,29.17
2018-08-14T05:46:14.263Z,26.47
2018-08-14T05:48:41.162Z,24.40
2018-08-14T05:51:08.085Z,29.33
2018-08-14T05:53:34.975Z,27.27
2018-08-14T05:56:01.891Z,28.63
2018-08-14T05:58:28.799Z,28.57
2018-08-14T06:00:55.740Z,21.27
2018-08-14T06:03:22.645Z,25.87
2018-08-14T06:05:49.668Z,25.57
2018-08-14T06:08:16.572Z,21.13
2018-08-14T06:10:43.464Z,24.73
2018-08-14T06:13:10.362Z,20.40
2018-08-14T06:15:37.263Z,17.47
2018-08-14T06:18:04.489Z,21.60
2018-08-14T06:20:31.443Z,19.20
2018-08-14T06:22:58.339Z,17.10
2018-08-14T06:25:25.285Z,15.30
2018-08-14T06:27:52.167Z,20.23
2018-08-14T06:30:19.881Z,18.73
2018-08-14T06:32:48.137Z,17.93
2018-08-14T06:35:15.057Z,17.00
2018-08-14T06:37:41.977Z,19.97
2018-08-14T06:40:11.228Z,16.70
2018-08-14T06:42:38.512Z,17.60
2018-08-14T06:45:07.604Z,20.00
2018-08-14T06:47:34.517Z,24.93
2018-08-14T06:50:01.765Z,23.33
2018-08-14T06:52:28.655Z,25.50
